Time;durP1;ratioP1;P1;durP2;ratioP2;P2;SDS_P1;SDS_P2;PMS_P1;PMS_P2;Temp;Humidity;BMP_temperature;BMP_pressure;BME280_temperature;BME280_humidity;BME280_pressure;Samples;Min_cycle;Max_cycle;Signal;HPM_P1;HPM_P2
2023/11/02 00:01:51;;;;;;;32.70;20.90;;;;;;;8.74;100.00;99346.96;110173;1267;21969;-81
2023/11/02 00:04:57;;;;;;;27.70;19.80;;;;;;;8.72;100.00;99347.40;110429;1266;21975;-80
2023/11/02 00:07:45;;;;;;;27.30;22.60;;;;;;;8.70;100.00;99344.73;110486;1262;21995;-81
2023/11/02 00:10:31;;;;;;;23.60;21.00;;;;;;;8.68;100.00;99344.27;110546;1262;22002;-81
2023/11/02 00:13:37;;;;;;;20.40;18.20;;;;;;;8.67;100.00;99343.30;106882;1262;5133439;-81
2023/11/02 00:16:27;;;;;;;25.60;17.40;;;;;;;8.67;100.00;99336.02;110870;1262;23042;-80
2023/11/02 00:19:37;;;;;;;18.10;14.30;;;;;;;8.66;100.00;99327.54;110506;1262;21979;-80
2023/11/02 00:22:15;;;;;;;19.80;14.60;;;;;;;8.64;100.00;99324.54;110422;1265;21992;-80
2023/11/02 00:25:00;;;;;;;22.10;14.50;;;;;;;8.64;100.00;99320.52;110248;1265;21969;-79
2023/11/02 00:27:56;;;;;;;18.50;14.60;;;;;;;8.66;100.00;99316.63;110719;1265;21978;-79
2023/11/02 00:30:58;;;;;;;18.70;13.40;;;;;;;8.65;100.00;99304.17;110615;1265;23027;-79
2023/11/02 00:33:36;;;;;;;14.40;11.20;;;;;;;8.66;100.00;99310.92;109797;1271;21980;-79
2023/11/02 00:36:32;;;;;;;17.60;13.10;;;;;;;8.65;100.00;99306.61;109793;1271;21992;-81
2023/11/02 00:39:20;;;;;;;29.60;16.00;;;;;;;8.65;100.00;99303.68;109695;1271;21967;-79
2023/11/02 00:42:00;;;;;;;18.70;13.50;;;;;;;8.65;100.00;99304.86;110256;1268;23709;-80
2023/11/02 00:44:50;;;;;;;;;;;;;;;;;;;;;
2023/11/02 00:47:26;;;;;;;18.50;12.10;;;;;;;8.66;100.00;99302.77;110226;1268;23708;-79
2023/11/02 00:50:03;;;;;;;17.90;15.10;;;;;;;8.65;100.00;99305.26;109741;1268;21976;-80
2023/11/02 00:52:49;;;;;;;24.40;17.60;;;;;;;8.65;100.00;99307.32;109762;1268;22832;-79
2023/11/02 00:55:44;;;;;;;17.50;15.60;;;;;;;8.64;100.00;99302.67;110199;1268;21981;-79
2023/11/02 00:58:39;;;;;;;17.80;15.90;;;;;;;8.63;100.00;99294.41;110341;1268;21984;-80
2023/11/02 01:01:25;;;;;;;15.60;13.70;;;;;;;8.60;100.00;99279.80;110169;1269;21979;-82
2023/11/02 01:04:56;;;;;;;13.40;12.00;;;;;;;8.58;100.00;99275.38;109313;1276;22001;-80
2023/11/02 01:07:43;;;;;;;13.50;11.10;;;;;;;8.54;100.00;99268.11;109118;1279;22003;-79
2023/11/02 01:10:25;;;;;;;14.00;9.70;;;;;;;8.57;100.00;99264.31;109425;1274;22045;-81
2023/11/02 01:13:10;;;;;;;11.80;8.80;;;;;;;8.57;100.00;99257.73;109121;1278;21995;-80
2023/11/02 01:16:10;;;;;;;10.30;8.70;;;;;;;8.57;100.00;99253.21;109077;1278;22010;-81
2023/11/02 01:19:28;;;;;;;13.70;10.50;;;;;;;8.57;100.00;99252.86;109141;1278;21986;-80
2023/11/02 01:22:29;;;;;;;18.00;11.50;;;;;;;8.54;100.00;99250.20;109405;1272;23757;-79
2023/11/02 01:25:20;;;;;;;14.90;10.40;;;;;;;8.56;100.00;99247.90;109858;1272;21963;-81
2023/11/02 01:28:16;;;;;;;13.60;10.00;;;;;;;8.54;100.00;99239.52;109566;1269;21991;-79
2023/11/02 01:31:21;;;;;;;17.60;12.40;;;;;;;8.58;100.00;99244.16;110034;1263;21974;-80
2023/11/02 01:34:04;;;;;;;15.70;10.50;;;;;;;8.60;100.00;99247.90;110682;1263;22025;-79
2023/11/02 01:36:50;;;;;;;15.90;11.90;;;;;;;8.63;100.00;99247.23;110162;1269;23650;-80
2023/11/02 01:39:38;;;;;;;14.50;13.00;;;;;;;8.65;100.00;99245.58;109812;1269;21994;-81
2023/11/02 01:42:31;;;;;;;15.40;12.40;;;;;;;8.63;100.00;99239.23;109659;1271;21973;-81
2023/11/02 01:45:25;;;;;;;20.00;14.10;;;;;;;8.59;100.00;99232.68;109939;1267;21989;-80
2023/11/02 01:48:25;;;;;;;15.80;14.00;;;;;;;8.55;100.00;99232.48;109738;1270;22017;-80
2023/11/02 01:51:34;;;;;;;15.70;13.60;;;;;;;8.53;100.00;99235.90;109952;1270;21990;-82
2023/11/02 01:54:42;;;;;;;13.20;11.40;;;;;;;8.51;100.00;99234.62;109786;1265;22000;-81
2023/11/02 01:58:10;;;;;;;13.30;11.50;;;;;;;8.47;100.00;99224.23;110518;1265;23291;-80
2023/11/02 02:01:08;;;;;;;12.40;11.10;;;;;;;8.44;100.00;99221.94;110609;1265;22393;-80
2023/11/02 02:04:03;;;;;;;13.20;8.90;;;;;;;8.42;100.00;99211.95;110048;1263;23926;-81
2023/11/02 02:07:11;;;;;;;14.90;9.40;;;;;;;8.40;100.00;99203.39;110900;1257;23051;-80
2023/11/02 02:10:11;;;;;;;10.20;8.30;;;;;;;8.39;100.00;99204.13;111371;1257;21972;-81
2023/11/02 02:13:39;;;;;;;14.80;9.30;;;;;;;8.38;100.00;99204.52;111373;1257;21959;-79
2023/11/02 02:16:43;;;;;;;9.60;7.90;;;;;;;8.35;100.00;99197.70;111147;1257;24281;-80
2023/11/02 02:19:30;;;;;;;10.20;8.60;;;;;;;8.35;100.00;99193.87;111192;1257;23599;-83
2023/11/02 02:22:10;;;;;;;14.20;9.90;;;;;;;8.41;100.00;99197.29;110990;1257;21965;-79
2023/11/02 02:25:20;;;;;;;11.40;8.90;;;;;;;8.41;100.00;99199.15;110856;1257;21988;-80
2023/11/02 02:28:40;;;;;;;28.90;25.90;;;;;;;8.36;100.00;99201.45;111279;1257;23613;-81
2023/11/02 02:31:54;;;;;;;40.90;32.30;;;;;;;8.32;100.00;99198.73;110838;1257;23022;-80
2023/11/02 02:34:59;;;;;;;23.50;16.40;;;;;;;8.29;100.00;99196.94;111120;1257;22158;-78
2023/11/02 02:38:17;;;;;;;23.00;14.00;;;;;;;8.26;100.00;99191.69;110794;1263;22119;-80
2023/11/02 02:41:23;;;;;;;19.50;11.20;;;;;;;8.26;100.00;99185.64;110481;1263;22045;-79
2023/11/02 02:44:00;;;;;;;19.20;12.00;;;;;;;8.26;100.00;99184.61;110593;1263;21977;-80
2023/11/02 02:46:31;;;;;;;12.00;10.00;;;;;;;8.27;100.00;99181.23;110502;1263;21970;-78
2023/11/02 02:49:15;;;;;;;17.90;11.10;;;;;;;8.27;100.00;99185.23;110794;1262;21982;-80
2023/11/02 02:51:51;;;;;;;19.20;11.70;;;;;;;8.27;100.00;99187.35;110320;1266;22259;-79
2023/11/02 02:54:30;;;;;;;16.00;10.40;;;;;;;8.23;100.00;99188.36;110380;1267;21966;-81
2023/11/02 02:57:21;;;;;;;12.20;8.80;;;;;;;8.19;100.00;99189.59;110808;1261;22120;-80
2023/11/02 03:00:05;;;;;;;13.20;9.40;;;;;;;8.16;100.00;99191.30;110624;1261;21968;-79
2023/11/02 03:02:54;;;;;;;10.20;7.30;;;;;;;8.13;100.00;99183.99;110862;1260;22053;-79
2023/11/02 03:05:36;;;;;;;11.30;8.40;;;;;;;8.11;100.00;99180.45;110507;1260;22006;-80
2023/11/02 03:08:33;;;;;;;14.80;10.30;;;;;;;8.10;100.00;99173.06;110781;1260;22008;-77
2023/11/02 03:11:09;;;;;;;11.50;8.70;;;;;;;8.06;100.00;99172.00;111233;1257;21997;-80
2023/11/02 03:13:56;;;;;;;11.90;9.20;;;;;;;8.04;100.00;99170.91;110846;1261;21942;-80
2023/11/02 03:16:39;;;;;;;11.20;8.40;;;;;;;8.03;100.00;99171.13;111056;1260;21956;-80
2023/11/02 03:19:44;;;;;;;12.30;9.10;;;;;;;8.03;100.00;99167.30;110878;1260;22062;-84
2023/11/02 03:22:28;;;;;;;8.60;7.10;;;;;;;8.02;100.00;99164.76;110958;1260;21967;-84
2023/11/02 03:25:47;;;;;;;13.50;9.60;;;;;;;8.01;100.00;99159.95;110325;1266;22120;-83
2023/11/02 03:28:43;;;;;;;10.20;7.70;;;;;;;8.00;100.00;99159.81;109636;1265;21979;-79
2023/11/02 03:31:52;;;;;;;10.80;7.80;;;;;;;7.99;100.00;99153.28;109694;1267;21985;-78
2023/11/02 03:35:05;;;;;;;12.00;7.50;;;;;;;7.98;100.00;99153.83;110333;1267;23653;-78
2023/11/02 03:38:43;;;;;;;9.00;6.90;;;;;;;7.98;100.00;99151.95;109646;1273;22001;-80
2023/11/02 03:42:08;;;;;;;7.60;6.40;;;;;;;7.94;100.00;99144.49;109625;1272;22105;-79
2023/11/02 03:45:02;;;;;;;9.90;7.90;;;;;;;7.96;100.00;99137.98;109925;1266;21980;-79
2023/11/02 03:48:29;;;;;;;10.40;7.10;;;;;;;7.98;100.00;99123.86;110436;1261;24325;-79
2023/11/02 03:51:46;;;;;;;11.00;7.30;;;;;;;7.99;100.00;99124.51;110626;1261;21979;-78
2023/11/02 03:54:52;;;;;;;8.50;7.10;;;;;;;8.00;100.00;99118.59;110727;1261;22357;-79
2023/11/02 03:57:51;;;;;;;13.30;7.50;;;;;;;8.01;100.00;99111.61;110612;1261;21967;-77
2023/11/02 04:00:56;;;;;;;10.70;6.90;;;;;;;8.03;100.00;99110.13;110652;1261;21986;-79
2023/11/02 04:03:32;;;;;;;9.70;6.70;;;;;;;7.96;100.00;99091.58;109813;1268;21974;-80
2023/11/02 04:06:23;;;;;;;11.00;7.30;;;;;;;8.09;100.00;99108.27;109489;1271;23601;-79
2023/11/02 04:09:13;;;;;;;9.60;6.60;;;;;;;8.12;100.00;99102.63;109358;1276;23029;-79
2023/11/02 04:12:11;;;;;;;9.10;6.30;;;;;;;8.14;100.00;99105.43;109221;1276;23072;-78
2023/11/02 04:14:43;;;;;;;9.80;6.80;;;;;;;8.16;100.00;99107.61;108959;1276;21998;-79
2023/11/02 04:17:16;;;;;;;9.60;7.00;;;;;;;8.18;100.00;99115.33;108914;1276;22202;-79
2023/11/02 04:20:01;;;;;;;9.20;7.30;;;;;;;8.20;100.00;99115.54;108572;1281;23721;-81
2023/11/02 04:22:39;;;;;;;8.90;7.00;;;;;;;8.21;100.00;99106.32;109144;1271;23036;-79
2023/11/02 04:25:22;;;;;;;10.00;7.20;;;;;;;8.22;100.00;99101.94;109825;1268;21983;-78
2023/11/02 04:28:12;;;;;;;15.70;7.40;;;;;;;8.23;100.00;99094.27;110505;1261;21969;-78
2023/11/02 04:31:01;;;;;;;8.60;6.60;;;;;;;8.22;100.00;99088.42;110716;1261;21963;-79
2023/11/02 04:33:57;;;;;;;19.40;16.40;;;;;;;8.23;100.00;99083.88;110567;1261;21999;-80
2023/11/02 04:36:27;;;;;;;14.90;11.70;;;;;;;8.25;100.00;99087.23;110726;1260;22402;-80
2023/11/02 04:39:14;;;;;;;11.20;7.60;;;;;;;8.26;100.00;99080.79;110749;1261;23900;-80
2023/11/02 04:41:49;;;;;;;47.60;42.10;;;;;;;8.27;100.00;99075.70;110425;1266;22069;-82
2023/11/02 04:44:40;;;;;;;11.10;8.70;;;;;;;8.28;100.00;99076.68;110402;1262;21988;-79
2023/11/02 04:47:29;;;;;;;12.60;8.90;;;;;;;8.30;100.00;99077.63;110308;1267;21986;-79
2023/11/02 04:50:07;;;;;;;13.10;8.60;;;;;;;8.32;100.00;99073.40;110034;1267;22071;-80
2023/11/02 04:52:42;;;;;;;12.70;8.70;;;;;;;8.35;100.00;99063.01;109610;1270;22046;-80
2023/11/02 04:55:16;;;;;;;10.40;7.70;;;;;;;8.39;100.00;99054.15;109824;1270;23728;-82
2023/11/02 04:57:53;;;;;;;10.70;8.00;;;;;;;8.43;100.00;99050.52;109814;1270;22176;-80
2023/11/02 05:00:44;;;;;;;10.20;7.60;;;;;;;8.45;100.00;99051.96;110022;1268;21992;-80
2023/11/02 05:03:44;;;;;;;11.40;8.10;;;;;;;8.46;100.00;99052.80;110056;1268;23490;-80
2023/11/02 05:06:18;;;;;;;;;;;;;;;8.47;100.00;99047.21;110261;1268;23612;-75
2023/11/02 05:08:48;;;;;;;15.20;9.00;;;;;;;8.42;100.00;99041.73;109286;1272;22001;-76
2023/11/02 05:11:25;;;;;;;12.60;10.50;;;;;;;8.47;100.00;99040.79;109667;1253;22003;-80
2023/11/02 05:13:59;;;;;;;38.10;34.20;;;;;;;8.51;100.00;99042.33;110431;1265;21973;-79
2023/11/02 05:16:41;;;;;;;78.20;61.10;;;;;;;8.49;100.00;99037.02;110469;1265;23844;-80
2023/11/02 05:19:19;;;;;;;28.80;19.80;;;;;;;8.48;100.00;99028.80;110519;1262;21988;-78
2023/11/02 05:21:56;;;;;;;19.10;13.30;;;;;;;8.45;100.00;99026.32;110621;1262;22051;-79
2023/11/02 05:24:40;;;;;;;21.90;13.00;;;;;;;8.43;100.00;99031.10;110788;1262;21974;-78
2023/11/02 05:27:20;;;;;;;12.60;8.90;;;;;;;8.42;100.00;99036.84;110447;1266;23017;-79
2023/11/02 05:30:09;;;;;;;16.60;10.00;;;;;;;8.40;100.00;99035.54;110128;1267;24364;-80
2023/11/02 05:32:44;;;;;;;16.10;10.70;;;;;;;8.39;100.00;99019.99;110547;1262;22183;-79
2023/11/02 05:35:24;;;;;;;14.50;10.60;;;;;;;8.40;100.00;99010.75;110951;1261;21950;-80
2023/11/02 05:38:01;;;;;;;16.40;11.30;;;;;;;8.42;100.00;99011.39;110736;1261;21942;-81
2023/11/02 05:40:50;;;;;;;12.60;9.70;;;;;;;8.42;100.00;99016.05;110950;1261;22800;-80
2023/11/02 05:43:34;;;;;;;12.30;10.20;;;;;;;8.40;100.00;99016.31;110385;1264;21979;-82
2023/11/02 05:46:26;;;;;;;12.40;9.10;;;;;;;8.40;100.00;99009.36;110831;1262;21977;-81
2023/11/02 05:49:10;;;;;;;13.10;9.50;;;;;;;8.40;100.00;99009.92;110524;1262;21977;-78
2023/11/02 05:52:14;;;;;;;11.60;8.80;;;;;;;8.39;100.00;99005.95;110711;1262;21976;-79
2023/11/02 05:55:12;;;;;;;15.40;9.00;;;;;;;8.38;100.00;98997.67;110439;1266;22002;-80
2023/11/02 05:57:59;;;;;;;10.50;7.60;;;;;;;8.39;100.00;98994.19;110289;1266;23812;-78
2023/11/02 06:00:31;;;;;;;11.80;8.50;;;;;;;8.41;100.00;98988.54;110342;1266;22297;-79
2023/11/02 06:03:14;;;;;;;13.90;8.70;;;;;;;8.44;100.00;98991.67;110742;1262;21975;-81
2023/11/02 06:06:14;;;;;;;15.60;9.50;;;;;;;8.47;100.00;98987.41;110661;1262;21969;-80
2023/11/02 06:08:57;;;;;;;12.00;9.20;;;;;;;8.49;100.00;98986.25;110652;1262;22001;-81
2023/11/02 06:12:03;;;;;;;16.20;9.10;;;;;;;8.48;100.00;98989.25;110767;1257;22005;-81
2023/11/02 06:14:52;;;;;;;12.20;8.30;;;;;;;8.52;100.00;98992.66;110982;1257;23025;-80
2023/11/02 06:17:33;;;;;;;16.00;9.50;;;;;;;8.51;100.00;98975.39;110960;1253;23071;-81
2023/11/02 06:20:30;;;;;;;14.50;9.00;;;;;;;8.58;100.00;98979.16;110892;1256;21995;-78
2023/11/02 06:23:13;;;;;;;12.90;9.10;;;;;;;8.59;100.00;98976.02;110564;1259;23015;-78
2023/11/02 06:26:01;;;;;;;14.90;9.20;;;;;;;8.64;100.00;98975.09;110422;1262;23623;-78
2023/11/02 06:28:42;;;;;;;11.80;7.80;;;;;;;8.66;100.00;98976.02;110802;1262;22119;-78
2023/11/02 06:31:43;;;;;;;13.90;7.60;;;;;;;8.67;100.00;98973.20;110713;1262;22025;-79
2023/11/02 06:34:34;;;;;;;10.70;7.90;;;;;;;8.58;100.00;98954.90;110742;1262;21966;-80
2023/11/02 06:37:23;;;;;;;10.30;7.60;;;;;;;8.65;100.00;98969.11;110415;1262;21972;-80
2023/11/02 06:40:00;;;;;;;10.60;7.90;;;;;;;8.67;100.00;98967.09;110531;1261;24106;-79
2023/11/02 06:42:51;;;;;;;11.90;8.00;;;;;;;8.70;100.00;98962.63;110774;1257;21972;-79
2023/11/02 06:45:32;;;;;;;11.50;7.80;;;;;;;8.71;100.00;98955.45;111106;1256;21989;-80
2023/11/02 06:48:02;;;;;;;10.10;8.20;;;;;;;8.73;100.00;98956.41;110941;1257;21960;-79
2023/11/02 06:50:46;;;;;;;11.30;7.00;;;;;;;8.75;100.00;98953.16;110920;1257;24275;-79
2023/11/02 06:53:41;;;;;;;11.90;8.00;;;;;;;8.77;100.00;98949.23;110906;1257;22407;-80
2023/11/02 06:56:17;;;;;;;10.30;7.70;;;;;;;8.77;100.00;98943.69;111021;1247;21972;-79
2023/11/02 06:59:01;;;;;;;9.00;7.40;;;;;;;8.77;100.00;98943.51;110545;1261;21978;-78
2023/11/02 07:02:00;;;;;;;11.10;8.40;;;;;;;8.79;100.00;98938.73;110593;1262;23063;-78
2023/11/02 07:04:57;;;;;;;12.80;8.50;;;;;;;8.84;100.00;98936.04;110585;1262;22899;-79
2023/11/02 07:07:43;;;;;;;12.70;7.30;;;;;;;8.90;100.00;98937.11;109859;1267;22038;-78
2023/11/02 07:10:31;;;;;;;12.60;8.30;;;;;;;8.92;100.00;98929.35;110278;1266;23053;-78
2023/11/02 07:13:25;;;;;;;12.50;8.30;;;;;;;9.00;100.00;98926.53;109776;1269;22323;-80
2023/11/02 07:16:24;;;;;;;21.00;15.30;;;;;;;9.09;100.00;98915.61;110547;1263;21995;-79
2023/11/02 07:19:07;;;;;;;13.50;10.70;;;;;;;9.21;100.00;98909.60;110431;1264;21991;-80
2023/11/02 07:21:58;;;;;;;15.80;12.10;;;;;;;9.34;100.00;98903.80;110410;1263;22048;-80
2023/11/02 07:24:49;;;;;;;15.90;9.60;;;;;;;9.48;100.00;98895.77;110649;1264;23628;-77
2023/11/02 07:27:28;;;;;;;21.10;9.40;;;;;;;9.62;100.00;98883.14;110590;1260;21966;-80
2023/11/02 07:30:23;;;;;;;14.90;8.10;;;;;;;9.75;100.00;98871.48;110896;1256;22024;-80
2023/11/02 07:33:06;;;;;;;11.00;9.10;;;;;;;9.87;100.00;98862.97;111274;1255;21971;-78
2023/11/02 07:36:00;;;;;;;12.90;7.90;;;;;;;9.99;100.00;98861.52;110988;1255;23782;-80
2023/11/02 07:38:52;;;;;;;14.10;10.80;;;;;;;10.12;100.00;98849.66;110679;1261;21970;-79
2023/11/02 07:41:37;;;;;;;13.60;7.80;;;;;;;10.25;100.00;98842.27;110603;1260;22049;-79
2023/11/02 07:44:13;;;;;;;9.80;6.50;;;;;;;10.41;100.00;98839.77;110674;1260;23055;-80
2023/11/02 07:47:06;;;;;;;;;;;;;;;;;;;;;
2023/11/02 07:50:05;;;;;;;7.30;5.70;;;;;;;10.79;100.00;98833.42;110688;1260;22404;-79
2023/11/02 07:53:02;;;;;;;9.70;6.10;;;;;;;11.05;100.00;98834.36;110641;1260;21922;-77
2023/11/02 07:55:41;;;;;;;10.30;5.90;;;;;;;11.35;100.00;98829.49;111002;1258;21993;-78
2023/11/02 07:58:42;;;;;;;12.70;6.40;;;;;;;11.64;100.00;98826.02;111081;1255;21959;-78
2023/11/02 08:01:24;;;;;;;7.60;4.90;;;;;;;11.95;100.00;98825.54;111078;1256;22018;-79
2023/11/02 08:04:10;;;;;;;9.40;5.50;;;;;;;12.31;100.00;98820.84;110815;1262;21950;-79
2023/11/02 08:06:44;;;;;;;9.40;5.60;;;;;;;12.61;100.00;98820.16;110138;1267;21970;-77
2023/11/02 08:09:21;;;;;;;9.90;5.00;;;;;;;12.74;100.00;98828.15;109698;1270;23730;-80
2023/11/02 08:12:02;;;;;;;9.40;5.50;;;;;;;12.81;100.00;98830.04;109499;1270;22016;-81
2023/11/02 08:14:40;;;;;;;7.60;4.80;;;;;;;12.78;100.00;98832.54;110057;1270;21975;-84
2023/11/02 08:17:17;;;;;;;11.20;5.60;;;;;;;12.68;100.00;98830.48;110036;1270;24662;-83
2023/11/02 08:19:53;;;;;;;7.70;5.50;;;;;;;12.53;100.00;98822.42;109838;1270;23127;-81
2023/11/02 08:22:30;;;;;;;10.00;5.30;;;;;;;12.44;100.00;98821.85;109537;1272;22004;-81
2023/11/02 08:25:22;;;;;;;7.80;5.40;;;;;;;12.36;100.00;98818.58;110211;1265;22000;-80
2023/11/02 08:28:08;;;;;;;11.10;4.90;;;;;;;12.26;100.00;98819.77;110713;1261;21969;-79
2023/11/02 08:30:50;;;;;;;6.60;4.10;;;;;;;12.21;100.00;98809.52;110750;1261;21972;-81
2023/11/02 08:33:35;;;;;;;8.30;4.70;;;;;;;12.17;100.00;98806.48;110760;1261;21994;-81
2023/11/02 08:36:35;;;;;;;7.20;4.80;;;;;;;12.14;100.00;98802.98;110784;1256;22063;-82
2023/11/02 08:39:17;;;;;;;8.10;5.10;;;;;;;12.13;100.00;98795.91;111000;1261;21963;-82
2023/11/02 08:41:53;;;;;;;9.40;5.60;;;;;;;12.12;100.00;98794.39;111311;1256;22229;-81
2023/11/02 08:44:29;;;;;;;7.30;5.10;;;;;;;12.09;100.00;98791.64;111421;1255;22400;-82
2023/11/02 08:47:07;;;;;;;6.80;5.00;;;;;;;12.10;100.00;98787.23;110998;1261;21943;-81
2023/11/02 08:49:57;;;;;;;7.60;5.40;;;;;;;12.09;100.00;98779.97;110870;1261;22164;-80
2023/11/02 08:52:38;;;;;;;13.10;5.50;;;;;;;12.11;100.00;98774.63;111072;1262;21969;-82
2023/11/02 08:55:24;;;;;;;13.80;5.50;;;;;;;12.21;100.00;98774.64;111091;1261;22095;-81
2023/11/02 08:58:19;;;;;;;11.70;5.50;;;;;;;12.35;100.00;98773.15;110887;1261;23013;-81
2023/11/02 09:01:03;;;;;;;11.90;5.30;;;;;;;12.40;100.00;98771.00;110912;1261;21991;-81
2023/11/02 09:04:03;;;;;;;8.80;4.80;;;;;;;12.37;100.00;98766.19;110831;1261;22996;-82
2023/11/02 09:06:37;;;;;;;7.70;5.40;;;;;;;12.32;100.00;98759.39;111175;1254;21961;-81
2023/11/02 09:09:23;;;;;;;11.90;5.60;;;;;;;12.30;100.00;98755.85;111261;1260;24296;-78
2023/11/02 09:12:24;;;;;;;8.50;5.20;;;;;;;12.33;100.00;98748.14;110848;1260;22170;-79
2023/11/02 09:15:00;;;;;;;12.60;5.70;;;;;;;12.36;100.00;98734.72;111019;1260;22044;-80
2023/11/02 09:17:48;;;;;;;12.60;5.50;;;;;;;12.37;100.00;98723.81;110904;1260;22431;-79
2023/11/02 09:20:36;;;;;;;9.50;6.90;;;;;;;12.37;100.00;98720.13;110862;1260;21942;-79
2023/11/02 09:23:18;;;;;;;;;;;;;;;12.38;100.00;98717.42;110610;1266;22013;-78
2023/11/02 09:26:01;;;;;;;10.90;5.60;;;;;;;12.36;100.00;98709.24;110764;1262;22548;-80
2023/11/02 09:28:42;;;;;;;10.70;7.10;;;;;;;12.49;100.00;98707.95;110544;1262;21970;-81
2023/11/02 09:31:21;;;;;;;11.00;7.50;;;;;;;12.77;100.00;98700.70;110676;1262;22982;-78
2023/11/02 09:34:16;;;;;;;12.50;7.90;;;;;;;13.03;100.00;98691.45;110734;1257;22432;-79
2023/11/02 09:36:56;;;;;;;10.20;7.20;;;;;;;13.36;100.00;98678.70;110746;1262;22007;-79
2023/11/02 09:39:36;;;;;;;34.80;26.00;;;;;;;13.70;100.00;98662.85;110746;1262;21970;-79
2023/11/02 09:42:29;;;;;;;12.60;7.40;;;;;;;14.00;100.00;98652.96;111289;1256;21974;-80
2023/11/02 09:45:03;;;;;;;13.50;7.10;;;;;;;14.31;100.00;98647.87;111374;1255;23623;-79
2023/11/02 09:47:48;;;;;;;8.90;4.90;;;;;;;14.66;100.00;98648.39;111345;1256;23023;-79
2023/11/02 09:50:28;;;;;;;8.90;5.80;;;;;;;14.92;100.00;98648.59;111228;1255;22697;-80
2023/11/02 09:53:07;;;;;;;9.50;5.50;;;;;;;15.07;100.00;98645.19;110621;1261;21972;-79
2023/11/02 09:55:40;;;;;;;14.60;5.40;;;;;;;15.20;100.00;98636.91;110705;1261;22293;-78
2023/11/02 09:58:19;;;;;;;17.80;8.50;;;;;;;15.30;100.00;98637.86;110396;1259;22346;-79
2023/11/02 10:01:01;;;;;;;16.00;7.10;;;;;;;15.40;100.00;98632.81;110699;1260;23599;-79
2023/11/02 10:03:39;;;;;;;13.80;5.90;;;;;;;15.56;100.00;98627.18;110648;1265;23953;-78
2023/11/02 10:06:22;;;;;;;9.80;5.20;;;;;;;15.71;100.00;98627.36;109946;1270;23073;-77
2023/11/02 10:09:06;;;;;;;10.60;5.30;;;;;;;15.92;100.00;98634.67;109548;1270;21979;-79
2023/11/02 10:11:53;;;;;;;12.20;5.30;;;;;;;16.11;100.00;98636.02;110201;1266;23678;-78
2023/11/02 10:14:39;;;;;;;13.00;6.80;;;;;;;16.21;100.00;98622.85;110227;1264;22865;-79
2023/11/02 10:17:20;;;;;;;8.50;4.50;;;;;;;16.34;99.86;98616.92;109766;1266;21982;-78
2023/11/02 10:20:00;;;;;;;12.10;6.00;;;;;;;16.41;98.55;98620.22;110072;1259;22018;-79
2023/11/02 10:22:56;;;;;;;13.80;5.80;;;;;;;16.48;98.15;98606.91;110564;1260;22499;-79
2023/11/02 10:25:32;;;;;;;9.00;4.90;;;;;;;16.69;99.04;98598.48;110885;1256;22035;-78
2023/11/02 10:28:16;;;;;;;10.40;4.10;;;;;;;16.87;98.21;98600.45;110470;1262;21977;-78
2023/11/02 10:30:47;;;;;;;7.10;3.70;;;;;;;16.85;96.51;98589.73;110525;1261;21971;-78
2023/11/02 10:33:30;;;;;;;8.40;4.50;;;;;;;16.78;96.22;98575.23;110534;1262;21977;-79
2023/11/02 10:36:16;;;;;;;11.20;4.10;;;;;;;16.72;96.46;98571.70;110482;1262;24193;-78
2023/11/02 10:38:52;;;;;;;6.60;4.20;;;;;;;16.70;96.55;98564.94;110538;1262;21971;-79
2023/11/02 10:41:35;;;;;;;10.40;4.00;;;;;;;16.70;96.24;98552.81;110491;1262;23666;-79
2023/11/02 10:44:08;;;;;;;87.50;15.60;;;;;;;16.75;96.51;98558.80;110691;1262;22000;-78
2023/11/02 10:46:45;;;;;;;193.10;26.80;;;;;;;16.92;97.48;98557.98;110605;1262;23060;-78
2023/11/02 10:49:21;;;;;;;167.60;26.20;;;;;;;17.10;96.87;98553.51;110022;1268;23605;-79
2023/11/02 10:51:53;;;;;;;;;;;;;;;17.22;95.87;98545.22;109810;1271;24360;-80
2023/11/02 10:54:58;;;;;;;115.70;18.70;;;;;;;17.12;94.10;98539.80;110161;1267;22969;-79
2023/11/02 10:57:37;;;;;;;35.30;9.50;;;;;;;17.01;93.96;98534.72;110074;1267;23010;-80
2023/11/02 11:00:15;;;;;;;31.10;6.90;;;;;;;16.91;94.20;98535.41;109863;1268;21957;-78
2023/11/02 11:02:49;;;;;;;146.10;23.60;;;;;;;16.88;94.62;98533.29;110346;1268;22027;-78
2023/11/02 11:05:29;;;;;;;302.50;47.50;;;;;;;16.85;94.82;98531.80;110309;1267;22004;-79
2023/11/02 11:08:10;;;;;;;99.50;15.80;;;;;;;16.83;94.88;98526.13;110461;1264;22008;-81
2023/11/02 11:10:47;;;;;;;79.40;11.70;;;;;;;16.81;94.95;98528.06;110533;1263;22905;-78
2023/11/02 11:13:24;;;;;;;103.00;14.70;;;;;;;16.78;94.54;98519.55;110670;1263;21974;-79
2023/11/02 11:16:12;;;;;;;111.20;16.60;;;;;;;16.67;94.40;98516.72;110780;1263;21986;-78
2023/11/02 11:18:51;;;;;;;32.60;6.60;;;;;;;16.58;94.54;98514.70;110719;1249;21984;-81
2023/11/02 11:21:40;;;;;;;26.10;6.10;;;;;;;16.44;95.07;98515.64;110488;1265;22323;-80
2023/11/02 11:24:23;;;;;;;10.20;4.20;;;;;;;16.24;95.22;98500.60;110823;1265;22001;-78
2023/11/02 11:27:07;;;;;;;15.30;4.50;;;;;;;16.16;96.00;98492.23;109901;1261;23067;-79
2023/11/02 11:29:50;;;;;;;11.10;4.30;;;;;;;16.13;96.40;98493.55;110491;1265;21990;-79
2023/11/02 11:32:40;;;;;;;14.00;4.30;;;;;;;16.05;96.69;98486.03;110785;1265;22011;-78
2023/11/02 11:35:16;;;;;;;15.20;4.40;;;;;;;15.99;96.78;98479.69;110493;1265;21983;-78
2023/11/02 11:37:50;;;;;;;17.50;4.70;;;;;;;15.97;97.09;98474.95;110423;1265;22790;-78
2023/11/02 11:40:44;;;;;;;24.80;17.50;;;;;;;15.93;97.11;98472.48;110703;1261;21964;-80
2023/11/02 11:43:52;;;;;;;18.60;10.10;;;;;;;15.90;97.26;98476.61;110830;1261;23624;-79
2023/11/02 11:47:02;;;;;;;23.10;11.00;;;;;;;15.79;96.79;98470.03;111311;1256;24299;-79
2023/11/02 11:49:48;;;;;;;16.80;7.40;;;;;;;15.70;96.96;98470.54;110796;1261;22021;-80
2023/11/02 11:52:53;;;;;;;14.20;6.80;;;;;;;15.65;97.27;98467.98;110739;1261;22434;-78
2023/11/02 11:56:01;;;;;;;12.00;6.00;;;;;;;15.58;97.39;98456.13;110953;1261;23685;-79
2023/11/02 11:58:40;;;;;;;10.00;4.80;;;;;;;15.56;97.55;98453.44;110114;1267;25036;-80
2023/11/02 12:01:35;;;;;;;12.10;4.70;;;;;;;15.61;97.79;98451.81;109566;1273;23036;-78
2023/11/02 12:04:56;;;;;;;16.30;6.70;;;;;;;15.69;97.98;98442.52;109512;1270;22002;-79
2023/11/02 12:07:33;;;;;;;11.50;4.70;;;;;;;15.74;97.66;98438.09;108806;1278;21989;-79
2023/11/02 12:10:13;;;;;;;7.20;4.40;;;;;;;15.72;96.98;98438.73;108842;1278;22808;-79
2023/11/02 12:12:51;;;;;;;13.80;4.80;;;;;;;15.72;96.81;98432.81;104638;1278;5509514;-79
2023/11/02 12:15:30;;;;;;;10.80;5.90;;;;;;;15.76;96.76;98429.27;108896;1277;21989;-78
2023/11/02 12:18:28;;;;;;;8.20;3.90;;;;;;;15.77;96.15;98428.52;108824;1278;21942;-78
2023/11/02 12:21:11;;;;;;;8.00;4.20;;;;;;;15.77;95.71;98423.46;109353;1272;23761;-77
2023/11/02 12:23:44;;;;;;;6.80;3.60;;;;;;;15.76;95.39;98412.27;109369;1272;22092;-79
2023/11/02 12:26:28;;;;;;;7.50;3.60;;;;;;;15.78;94.88;98414.77;110024;1262;21975;-78
2023/11/02 12:29:19;;;;;;;9.00;3.80;;;;;;;15.75;94.05;98418.88;110806;1256;23744;-78
2023/11/02 12:32:13;;;;;;;8.50;3.30;;;;;;;15.72;93.48;98421.23;110765;1256;21968;-78
2023/11/02 12:34:47;;;;;;;6.70;2.70;;;;;;;15.74;93.33;98426.35;110867;1244;22097;-80
2023/11/02 12:37:33;;;;;;;14.70;4.50;;;;;;;15.73;93.25;98426.89;111059;1256;23669;-78
2023/11/02 12:40:16;;;;;;;10.70;5.10;;;;;;;15.75;93.32;98425.86;110583;1258;22042;-79
2023/11/02 12:43:02;;;;;;;6.70;3.50;;;;;;;15.76;93.19;98422.13;110573;1262;22928;-80
2023/11/02 12:45:37;;;;;;;7.30;3.50;;;;;;;15.78;93.29;98418.23;110616;1261;23622;-80
2023/11/02 12:48:32;;;;;;;8.30;3.50;;;;;;;15.78;92.96;98419.52;110582;1261;21977;-79
2023/11/02 12:51:21;;;;;;;10.60;3.40;;;;;;;15.77;92.53;98413.65;110868;1261;22414;-78
2023/11/02 12:54:13;;;;;;;5.70;3.40;;;;;;;15.76;92.28;98405.61;110022;1266;22054;-76
2023/11/02 12:57:01;;;;;;;;;;;;;;;;;;;;;